Time;durP1;ratioP1;P1;durP2;ratioP2;P2;SDS_P1;SDS_P2;PMS_P1;PMS_P2;Temp;Humidity;BMP_temperature;BMP_pressure;BME280_temperature;BME280_humidity;BME280_pressure;Samples;Min_cycle;Max_cycle;Signal;HPM_P1;HPM_P2
2021/05/27 00:01:03;;;;;;;4.00;2.10;;;13.90;88.50;;;;;;4997008;28;20133;-64
2021/05/27 00:03:48;;;;;;;2.65;2.10;;;13.90;88.30;;;;;;4995750;28;20417;-64
2021/05/27 00:06:32;;;;;;;2.97;2.10;;;13.80;88.30;;;;;;5010538;28;20095;-64
2021/05/27 00:09:16;;;;;;;3.47;2.50;;;13.80;88.30;;;;;;5010720;28;20085;-64
2021/05/27 00:12:00;;;;;;;3.85;2.65;;;13.70;88.40;;;;;;4991796;28;20045;-64
2021/05/27 00:14:44;;;;;;;5.00;2.20;;;13.60;88.50;;;;;;4996332;28;20115;-64
2021/05/27 00:17:28;;;;;;;3.78;2.60;;;13.60;88.70;;;;;;5011716;28;20041;-64
2021/05/27 00:19:56;;;;;;;3.67;2.53;;;13.60;89.00;;;;;;5001104;28;20517;-63
2021/05/27 00:22:41;;;;;;;3.20;2.40;;;13.50;89.20;;;;;;5010347;28;20064;-63
2021/05/27 00:25:25;;;;;;;3.25;2.20;;;13.50;89.30;;;;;;5008763;28;20057;-63
2021/05/27 00:28:09;;;;;;;3.58;2.63;;;13.40;89.40;;;;;;4991968;28;20053;-63
2021/05/27 00:30:53;;;;;;;3.20;2.40;;;13.40;89.40;;;;;;5009997;28;20045;-63
2021/05/27 00:33:37;;;;;;;3.03;2.30;;;13.30;89.30;;;;;;5010518;28;20065;-63
2021/05/27 00:36:21;;;;;;;3.67;2.50;;;13.30;89.40;;;;;;5010641;28;20128;-63
2021/05/27 00:39:05;;;;;;;4.25;2.45;;;13.30;89.50;;;;;;5016538;28;20389;-63
2021/05/27 00:41:49;;;;;;;3.20;2.40;;;13.20;89.80;;;;;;4995339;28;20165;-63
2021/05/27 00:44:34;;;;;;;3.45;2.63;;;13.20;90.00;;;;;;5006446;28;20573;-63
2021/05/27 00:47:18;;;;;;;3.42;2.45;;;13.10;90.00;;;;;;5014989;28;20041;-64
2021/05/27 00:50:04;;;;;;;3.00;2.25;;;13.10;90.20;;;;;;5012465;28;20037;-64
2021/05/27 00:52:54;;;;;;;4.55;2.40;;;13.10;90.30;;;;;;4995253;28;20036;-63
2021/05/27 00:55:38;;;;;;;4.00;2.70;;;13.00;90.30;;;;;;5019280;28;20083;-63
2021/05/27 00:58:23;;;;;;;4.05;2.58;;;13.00;90.40;;;;;;5034152;28;20036;-63
2021/05/27 01:01:07;;;;;;;4.63;2.88;;;13.00;90.60;;;;;;5012573;28;20045;-65
2021/05/27 01:03:51;;;;;;;4.13;3.13;;;12.90;90.40;;;;;;5014471;28;20119;-63
2021/05/27 01:06:36;;;;;;;6.35;3.45;;;12.90;90.50;;;;;;5012513;28;20075;-63
2021/05/27 01:09:03;;;;;;;8.05;4.28;;;12.90;90.60;;;;;;5004309;28;20022;-63
2021/05/27 01:11:48;;;;;;;6.20;3.47;;;12.90;90.70;;;;;;4999893;28;20081;-63
2021/05/27 01:17:36;;;;;;;4.88;3.20;;;12.80;90.80;;;;;;5013317;28;20497;-68
2021/05/27 01:20:22;;;;;;;4.78;3.05;;;12.70;90.90;;;;;;5013898;28;20032;-68
2021/05/27 01:23:09;;;;;;;5.45;3.08;;;12.70;90.90;;;;;;5012196;28;20126;-67
2021/05/27 01:25:55;;;;;;;4.03;2.67;;;12.70;91.00;;;;;;5014203;28;20441;-68
2021/05/27 01:28:41;;;;;;;4.55;2.95;;;12.60;91.00;;;;;;5014852;28;20033;-68
2021/05/27 01:31:25;;;;;;;6.82;2.90;;;12.60;91.10;;;;;;5029576;28;20139;-67
2021/05/27 01:34:11;;;;;;;7.65;3.97;;;12.50;91.10;;;;;;5016598;28;20141;-67
2021/05/27 01:36:55;;;;;;;6.05;3.08;;;12.50;91.20;;;;;;5004762;28;20553;-68
2021/05/27 01:39:44;;;;;;;7.47;3.95;;;12.50;91.50;;;;;;5007848;28;20084;-68
2021/05/27 01:42:28;;;;;;;5.18;2.88;;;12.40;91.40;;;;;;5012845;28;20524;-67
2021/05/27 01:45:13;;;;;;;5.85;3.53;;;12.40;91.40;;;;;;5013631;28;20096;-67
2021/05/27 01:47:57;;;;;;;;;;;12.40;91.50;;;;;;5014006;28;20092;-67
2021/05/27 01:50:44;;;;;;;5.22;3.80;;;12.40;91.20;;;;;;5012475;28;19912;-67
2021/05/27 01:53:29;;;;;;;5.03;3.42;;;12.30;91.40;;;;;;5012516;28;20053;-66
2021/05/27 01:56:13;;;;;;;5.60;3.47;;;12.30;91.50;;;;;;5012762;28;20048;-67
2021/05/27 01:59:05;;;;;;;5.43;3.33;;;12.30;91.60;;;;;;5011866;28;20172;-67
2021/05/27 02:01:49;;;;;;;6.03;3.28;;;12.20;91.70;;;;;;5012081;28;20096;-67
2021/05/27 02:04:33;;;;;;;4.60;3.73;;;12.20;91.70;;;;;;5012894;28;20063;-67
2021/05/27 02:07:17;;;;;;;6.70;4.30;;;12.20;91.70;;;;;;5000979;28;20387;-68
2021/05/27 02:10:01;;;;;;;4.97;3.55;;;12.20;91.70;;;;;;5013374;28;20053;-68
2021/05/27 02:12:46;;;;;;;4.72;3.88;;;12.20;91.80;;;;;;5011162;28;20406;-68
2021/05/27 02:15:30;;;;;;;6.20;3.95;;;12.20;91.80;;;;;;5013252;28;20072;-67
2021/05/27 02:18:14;;;;;;;5.78;3.85;;;12.20;91.80;;;;;;5021128;28;20036;-68
2021/05/27 02:20:59;;;;;;;6.35;3.97;;;12.10;91.80;;;;;;5028212;28;20052;-68
2021/05/27 02:23:43;;;;;;;6.55;3.85;;;12.10;91.90;;;;;;5015387;28;20057;-68
2021/05/27 02:26:28;;;;;;;5.25;3.58;;;12.10;91.90;;;;;;5011885;28;20032;-67
2021/05/27 02:29:12;;;;;;;;;;;12.10;91.90;;;;;;5028527;28;20060;-67
2021/05/27 02:31:57;;;;;;;8.32;4.15;;;12.10;91.60;;;;;;5023451;28;20368;-68
2021/05/27 02:34:41;;;;;;;6.20;4.45;;;12.10;91.80;;;;;;5008031;28;20044;-67
2021/05/27 02:37:25;;;;;;;8.55;4.97;;;12.10;91.90;;;;;;4997287;28;20044;-68
2021/05/27 02:40:10;;;;;;;6.32;4.53;;;12.10;91.90;;;;;;5011942;28;20056;-68
2021/05/27 02:42:54;;;;;;;8.38;4.78;;;12.10;92.00;;;;;;5005176;28;20061;-69
2021/05/27 02:45:38;;;;;;;7.78;5.18;;;12.10;92.00;;;;;;4993270;28;20061;-69
2021/05/27 02:48:22;;;;;;;6.28;4.55;;;12.10;92.00;;;;;;5016310;28;20063;-69
2021/05/27 02:51:07;;;;;;;6.45;4.47;;;12.10;92.00;;;;;;5032403;28;20053;-69
2021/05/27 02:53:51;;;;;;;6.05;4.32;;;12.20;91.90;;;;;;5012383;28;20091;-70
2021/05/27 02:56:35;;;;;;;6.30;5.30;;;12.20;92.00;;;;;;5012758;28;20033;-69
2021/05/27 02:59:19;;;;;;;9.07;5.60;;;12.20;92.00;;;;;;4993744;28;20061;-71
2021/05/27 03:02:03;;;;;;;7.40;4.93;;;12.20;92.00;;;;;;4993785;28;20100;-69
2021/05/27 03:04:47;;;;;;;8.48;4.85;;;12.30;92.00;;;;;;5012574;28;20045;-69
2021/05/27 03:07:31;;;;;;;8.13;5.25;;;12.30;92.00;;;;;;5010070;28;20024;-69
2021/05/27 03:09:57;;;;;;;5.78;4.80;;;12.30;92.00;;;;;;4993648;28;20026;-69
2021/05/27 03:12:41;;;;;;;7.30;4.97;;;12.30;92.00;;;;;;5004055;28;20045;-69
2021/05/27 03:15:25;;;;;;;6.63;4.40;;;12.40;92.00;;;;;;5011314;28;20037;-69
2021/05/27 03:18:09;;;;;;;5.70;4.43;;;12.40;92.00;;;;;;5011885;28;20389;-69
2021/05/27 03:20:53;;;;;;;6.78;4.95;;;12.40;91.90;;;;;;5012292;28;20524;-69
2021/05/27 03:23:37;;;;;;;8.38;5.78;;;12.40;92.00;;;;;;5008473;28;20148;-69
2021/05/27 03:26:21;;;;;;;8.80;5.75;;;12.40;91.90;;;;;;5012632;28;20041;-69
2021/05/27 03:29:05;;;;;;;7.55;5.50;;;12.50;91.90;;;;;;5011341;28;20131;-69
2021/05/27 03:31:50;;;;;;;7.70;5.45;;;12.50;91.90;;;;;;5000530;28;20044;-69
2021/05/27 03:34:34;;;;;;;5.70;4.38;;;12.50;92.00;;;;;;4991642;28;20452;-69
2021/05/27 03:37:18;;;;;;;6.68;4.65;;;12.50;91.90;;;;;;5003723;28;20040;-69
2021/05/27 03:40:13;;;;;;;6.32;4.45;;;12.60;91.90;;;;;;5011821;28;20092;-68
2021/05/27 03:42:58;;;;;;;7.07;4.82;;;12.60;92.00;;;;;;5011470;28;20107;-67
2021/05/27 03:45:42;;;;;;;5.88;4.50;;;12.60;92.00;;;;;;5011873;28;20076;-69
2021/05/27 03:48:26;;;;;;;6.45;4.22;;;12.60;91.90;;;;;;5005092;28;20061;-68
2021/05/27 03:51:10;;;;;;;10.18;4.40;;;12.70;91.90;;;;;;5011142;28;20445;-68
2021/05/27 03:53:54;;;;;;;6.68;4.82;;;12.70;91.90;;;;;;4994735;28;20509;-67
2021/05/27 03:56:38;;;;;;;6.32;5.00;;;12.80;91.90;;;;;;5000027;28;20036;-68
2021/05/27 04:02:24;;;;;;;7.72;4.70;;;12.80;92.10;;;;;;5015336;28;20079;-68
2021/05/27 04:08:13;;;;;;;7.65;4.97;;;12.80;91.80;;;;;;5011055;28;20084;-68
2021/05/27 04:10:57;;;;;;;6.28;4.75;;;12.90;91.80;;;;;;4991771;28;20148;-68
2021/05/27 04:13:41;;;;;;;7.25;4.43;;;12.90;91.80;;;;;;5009963;28;20053;-67
2021/05/27 04:16:25;;;;;;;4.97;4.05;;;12.90;91.80;;;;;;5017087;28;20033;-67
2021/05/27 04:19:09;;;;;;;6.95;4.13;;;12.90;91.80;;;;;;5013060;28;20037;-68
2021/05/27 04:21:53;;;;;;;7.07;4.32;;;13.00;91.90;;;;;;4999348;28;20084;-67
2021/05/27 04:24:37;;;;;;;7.35;4.50;;;13.00;91.80;;;;;;4994624;28;20037;-67
2021/05/27 04:27:21;;;;;;;5.35;4.20;;;13.00;91.90;;;;;;5007989;28;20060;-66
2021/05/27 04:30:15;;;;;;;6.95;4.57;;;13.00;91.80;;;;;;5011185;28;20425;-66
2021/05/27 04:35:45;;;;;;;5.45;4.03;;;13.10;91.80;;;;;;5006948;28;20038;-66
2021/05/27 04:38:29;;;;;;;7.70;4.20;;;13.10;91.80;;;;;;5012090;28;20076;-67
2021/05/27 04:41:16;;;;;;;5.47;4.55;;;13.20;91.90;;;;;;5015051;28;20029;-67
2021/05/27 04:44:00;;;;;;;5.15;4.40;;;13.20;91.90;;;;;;5002093;28;20124;-67
2021/05/27 04:46:44;;;;;;;7.05;4.25;;;13.20;91.90;;;;;;4999255;28;20129;-68
2021/05/27 04:49:28;;;;;;;7.72;4.10;;;13.20;91.90;;;;;;4995667;28;20033;-67
2021/05/27 04:52:12;;;;;;;6.53;5.00;;;13.30;92.00;;;;;;5001322;28;20045;-66
2021/05/27 04:54:56;;;;;;;7.10;4.50;;;13.30;92.00;;;;;;4994921;28;20057;-67
2021/05/27 04:57:40;;;;;;;7.18;4.55;;;13.30;92.00;;;;;;5006275;28;20045;-67
2021/05/27 05:00:25;;;;;;;5.78;4.10;;;13.40;91.90;;;;;;5013914;28;20048;-68
2021/05/27 05:03:09;;;;;;;;;;;13.40;92.00;;;;;;5013389;28;20061;-67
2021/05/27 05:05:54;;;;;;;5.25;3.63;;;13.50;91.80;;;;;;5014648;28;19959;-67
2021/05/27 05:08:37;;;;;;;5.35;3.92;;;13.50;91.80;;;;;;5008778;28;20065;-68
2021/05/27 05:11:21;;;;;;;4.75;4.10;;;13.60;91.90;;;;;;5013424;28;20037;-68
2021/05/27 05:14:05;;;;;;;5.40;4.10;;;13.70;91.90;;;;;;5014631;28;20049;-67
2021/05/27 05:16:50;;;;;;;6.80;4.70;;;13.80;91.90;;;;;;5013163;28;20060;-67
2021/05/27 05:19:34;;;;;;;6.67;4.53;;;13.90;91.90;;;;;;5004534;28;20032;-66
2021/05/27 05:22:18;;;;;;;10.18;4.32;;;14.00;91.70;;;;;;5008264;28;20043;-67
2021/05/27 05:25:02;;;;;;;5.40;3.97;;;14.10;91.80;;;;;;5014342;28;20117;-66
2021/05/27 05:27:46;;;;;;;7.35;4.75;;;14.20;91.80;;;;;;4997758;28;20110;-66
2021/05/27 05:30:31;;;;;;;7.38;4.53;;;14.30;91.70;;;;;;5012126;28;20164;-66
2021/05/27 05:33:15;;;;;;;4.30;3.60;;;14.40;91.20;;;;;;5020622;28;20052;-66
2021/05/27 05:35:59;;;;;;;5.70;3.97;;;14.50;91.20;;;;;;5013137;28;20037;-66
2021/05/27 05:38:43;;;;;;;6.70;3.80;;;14.60;91.10;;;;;;5012710;28;20088;-66
2021/05/27 05:41:27;;;;;;;6.30;3.67;;;14.60;90.80;;;;;;5013996;28;20076;-67
2021/05/27 05:44:11;;;;;;;6.20;3.90;;;14.70;90.80;;;;;;5003614;28;20034;-66
2021/05/27 05:46:55;;;;;;;5.10;3.53;;;14.80;90.60;;;;;;5024535;28;20037;-70
2021/05/27 05:49:39;;;;;;;4.43;3.50;;;14.90;90.50;;;;;;5003412;28;20062;-71
2021/05/27 05:52:23;;;;;;;8.63;4.68;;;15.00;90.50;;;;;;5010003;28;20037;-76
2021/05/27 05:55:08;;;;;;;4.95;3.67;;;15.10;90.20;;;;;;5012169;28;20542;-73
2021/05/27 05:57:52;;;;;;;6.00;3.70;;;15.20;90.00;;;;;;5002570;28;20061;-68
2021/05/27 06:00:36;;;;;;;4.15;3.58;;;15.20;89.80;;;;;;5004048;28;20033;-69
2021/05/27 06:03:21;;;;;;;5.93;3.65;;;15.20;89.70;;;;;;5005271;28;20092;-69
2021/05/27 06:06:08;;;;;;;5.28;3.47;;;15.30;89.50;;;;;;5005565;28;20033;-69
2021/05/27 06:08:54;;;;;;;4.43;3.40;;;15.30;88.80;;;;;;5008923;28;20085;-69
2021/05/27 06:11:38;;;;;;;;;;;15.30;88.60;;;;;;4998311;28;20044;-69
2021/05/27 06:14:22;;;;;;;6.57;3.58;;;15.30;88.30;;;;;;5005070;28;19956;-69
2021/05/27 06:17:06;;;;;;;4.32;3.45;;;15.30;88.70;;;;;;4996059;28;20970;-68
2021/05/27 06:19:50;;;;;;;5.18;3.75;;;15.30;88.90;;;;;;5012132;28;20036;-69
2021/05/27 06:22:34;;;;;;;5.82;3.67;;;15.40;89.10;;;;;;4997353;28;20044;-69
2021/05/27 06:25:21;;;;;;;4.50;3.47;;;15.50;89.00;;;;;;5013132;28;20040;-70
2021/05/27 06:28:06;;;;;;;4.85;3.47;;;15.50;88.60;;;;;;5008806;28;20524;-69
2021/05/27 06:30:50;;;;;;;6.00;3.40;;;15.50;87.90;;;;;;5001858;28;20033;-69
2021/05/27 06:33:35;;;;;;;5.23;3.30;;;15.50;87.50;;;;;;5010772;28;20053;-68
2021/05/27 06:36:20;;;;;;;5.20;3.80;;;15.50;87.90;;;;;;4995971;28;20037;-69
2021/05/27 06:39:04;;;;;;;5.45;3.40;;;15.50;87.40;;;;;;4998442;28;20041;-69
2021/05/27 06:41:48;;;;;;;5.78;3.80;;;15.50;87.30;;;;;;4992860;28;20081;-68
2021/05/27 06:44:32;;;;;;;5.30;3.83;;;15.50;87.10;;;;;;5000179;28;20182;-68
2021/05/27 06:47:16;;;;;;;5.88;3.70;;;15.40;86.90;;;;;;5007382;28;20037;-69
2021/05/27 06:50:00;;;;;;;6.22;3.80;;;15.40;86.80;;;;;;5006885;28;20540;-69
2021/05/27 06:52:45;;;;;;;4.70;3.72;;;15.40;86.50;;;;;;5005870;28;20053;-69
2021/05/27 06:55:29;;;;;;;5.18;3.63;;;15.40;86.90;;;;;;4997904;28;20041;-68
2021/05/27 06:58:14;;;;;;;5.50;3.53;;;15.30;87.00;;;;;;5008236;28;20064;-68
2021/05/27 07:00:58;;;;;;;7.72;3.67;;;15.30;87.00;;;;;;5005497;28;20077;-69
2021/05/27 07:03:42;;;;;;;4.20;3.30;;;15.20;87.00;;;;;;5007901;28;20044;-69
2021/05/27 07:06:27;;;;;;;4.70;3.17;;;15.30;86.80;;;;;;5002147;28;20126;-68
2021/05/27 07:09:11;;;;;;;4.35;3.38;;;15.20;86.80;;;;;;5008886;28;20045;-68
2021/05/27 07:11:37;;;;;;;5.55;3.30;;;15.30;86.70;;;;;;4998555;28;20042;-67
2021/05/27 07:14:21;;;;;;;6.30;3.08;;;15.30;86.70;;;;;;5011085;28;20123;-69
2021/05/27 07:17:05;;;;;;;3.70;3.03;;;15.30;87.00;;;;;;5003845;28;20431;-69
2021/05/27 07:19:51;;;;;;;6.32;3.30;;;15.40;86.90;;;;;;5002944;28;20084;-69
2021/05/27 07:22:35;;;;;;;6.30;2.80;;;15.50;86.70;;;;;;5012041;28;20051;-69
2021/05/27 07:25:21;;;;;;;4.35;2.63;;;15.50;86.40;;;;;;5010957;28;20552;-69
2021/05/27 07:28:05;;;;;;;6.57;2.88;;;15.50;87.00;;;;;;5010249;28;20048;-70
2021/05/27 07:30:49;;;;;;;4.10;2.60;;;15.40;87.70;;;;;;5012077;28;20524;-70
2021/05/27 07:33:34;;;;;;;4.00;2.92;;;15.40;88.30;;;;;;5009001;28;20555;-69
2021/05/27 07:36:18;;;;;;;3.63;2.80;;;15.40;88.80;;;;;;5000825;28;20076;-69
2021/05/27 07:39:02;;;;;;;3.08;2.20;;;15.40;89.50;;;;;;5012099;28;20121;-69
2021/05/27 07:41:46;;;;;;;4.10;2.63;;;15.50;89.90;;;;;;5010369;28;20083;-70
2021/05/27 07:44:30;;;;;;;3.70;2.45;;;15.60;90.10;;;;;;5027403;28;20044;-70
2021/05/27 07:47:15;;;;;;;4.13;2.60;;;15.80;90.10;;;;;;5006611;28;20037;-71
2021/05/27 07:50:02;;;;;;;3.72;2.40;;;15.90;89.90;;;;;;5001734;28;20494;-71
2021/05/27 07:52:48;;;;;;;3.97;2.42;;;15.90;89.30;;;;;;5009281;28;20049;-72
2021/05/27 07:55:33;;;;;;;4.25;2.30;;;16.10;88.60;;;;;;5011666;28;20033;-72
2021/05/27 07:58:18;;;;;;;3.22;2.22;;;16.20;88.50;;;;;;5009293;28;20045;-71
2021/05/27 08:01:04;;;;;;;3.20;2.38;;;16.40;88.40;;;;;;5010891;28;20083;-71
2021/05/27 08:03:47;;;;;;;2.28;1.98;;;16.40;87.70;;;;;;5005784;28;20413;-69
2021/05/27 08:06:32;;;;;;;3.08;2.30;;;16.50;87.10;;;;;;5011516;28;20100;-71
2021/05/27 08:09:15;;;;;;;3.63;2.30;;;16.60;86.70;;;;;;5010463;28;20041;-70
2021/05/27 08:12:00;;;;;;;3.70;2.17;;;16.60;86.40;;;;;;5009279;28;20053;-70
2021/05/27 08:14:45;;;;;;;2.60;2.10;;;16.60;85.90;;;;;;5009499;28;20081;-69
2021/05/27 08:17:29;;;;;;;2.72;2.03;;;16.60;84.70;;;;;;5008844;28;20104;-70
2021/05/27 08:20:13;;;;;;;5.60;2.90;;;16.70;84.70;;;;;;5005381;28;20819;-69
2021/05/27 08:22:57;;;;;;;3.17;2.30;;;16.70;84.30;;;;;;4995069;28;20037;-69
2021/05/27 08:25:41;;;;;;;3.95;2.10;;;16.70;84.00;;;;;;4994069;28;20109;-69
2021/05/27 08:28:26;;;;;;;3.53;1.90;;;16.80;84.10;;;;;;5009558;28;20041;-69
2021/05/27 08:31:10;;;;;;;3.50;2.40;;;16.70;83.60;;;;;;5009313;28;20041;-70
2021/05/27 08:33:54;;;;;;;3.77;1.87;;;16.70;83.20;;;;;;5008430;28;20149;-70
2021/05/27 08:36:38;;;;;;;4.63;2.40;;;16.60;83.40;;;;;;5009308;28;20033;-70
2021/05/27 08:39:22;;;;;;;3.20;2.30;;;16.50;83.50;;;;;;4998438;28;20041;-70
2021/05/27 08:42:06;;;;;;;4.10;2.53;;;16.50;84.10;;;;;;5004529;28;20041;-69
2021/05/27 08:44:54;;;;;;;5.28;2.33;;;16.60;83.90;;;;;;4995326;28;20350;-69
2021/05/27 08:47:39;;;;;;;4.07;2.40;;;16.70;84.20;;;;;;5002763;28;20041;-70
2021/05/27 08:50:29;;;;;;;2.92;2.28;;;16.80;84.20;;;;;;5004968;28;20556;-70
2021/05/27 08:53:15;;;;;;;2.80;1.75;;;16.80;83.10;;;;;;5006914;28;20092;-69
2021/05/27 08:55:59;;;;;;;3.97;1.65;;;16.90;82.20;;;;;;5004737;28;20531;-70
2021/05/27 08:58:43;;;;;;;3.25;1.60;;;16.90;81.80;;;;;;5010093;28;20056;-70
2021/05/27 09:01:27;;;;;;;1.92;1.30;;;16.90;81.40;;;;;;5012977;28;20040;-70
2021/05/27 09:04:22;;;;;;;2.88;1.70;;;17.00;80.70;;;;;;5000373;28;20064;-70
2021/05/27 09:07:07;;;;;;;5.30;2.15;;;16.90;80.40;;;;;;5012660;28;20131;-70
2021/05/27 09:09:56;;;;;;;4.53;1.85;;;16.90;80.20;;;;;;5013928;28;20040;-70
2021/05/27 09:12:27;;;;;;;5.10;2.35;;;16.80;80.60;;;;;;5011790;28;20045;-69
2021/05/27 09:15:17;;;;;;;2.72;1.95;;;16.80;80.60;;;;;;5005720;28;20442;-69
2021/05/27 09:18:01;;;;;;;4.55;2.22;;;16.70;80.80;;;;;;5008737;28;20044;-70
2021/05/27 09:20:46;;;;;;;10.55;2.85;;;16.70;80.80;;;;;;4997249;28;20595;-70
2021/05/27 09:23:30;;;;;;;;;;;16.60;81.00;;;;;;5012083;28;20493;-70
2021/05/27 09:26:15;;;;;;;3.75;1.90;;;16.50;80.80;;;;;;5009774;28;20284;-71
2021/05/27 09:29:11;;;;;;;3.03;2.03;;;16.50;80.90;;;;;;5010307;28;20501;-70
2021/05/27 09:32:01;;;;;;;3.70;1.63;;;16.50;80.80;;;;;;5007980;28;20460;-70
2021/05/27 09:34:47;;;;;;;2.65;1.70;;;16.60;80.20;;;;;;4999846;28;20449;-70
2021/05/27 09:37:32;;;;;;;4.20;1.42;;;16.70;79.80;;;;;;5003128;28;20505;-70
2021/05/27 09:40:27;;;;;;;3.58;1.75;;;16.80;79.20;;;;;;5012592;28;20180;-70
2021/05/27 09:43:19;;;;;;;1.87;1.07;;;16.90;79.60;;;;;;4999203;28;20517;-70
2021/05/27 09:46:08;;;;;;;1.95;1.30;;;17.10;78.70;;;;;;5011526;28;20414;-70
2021/05/27 09:49:09;;;;;;;2.13;1.30;;;17.20;77.70;;;;;;5012204;28;20132;-70
2021/05/27 09:51:55;;;;;;;1.42;0.90;;;17.30;77.10;;;;;;5002196;28;20032;-70
2021/05/27 09:55:11;;;;;;;1.10;0.90;;;17.40;75.30;;;;;;5010090;28;20429;-69
2021/05/27 09:58:10;;;;;;;4.32;0.80;;;17.50;74.00;;;;;;5006694;28;20117;-71
2021/05/27 10:00:55;;;;;;;1.20;0.95;;;17.60;73.20;;;;;;5020856;28;20048;-70
2021/05/27 10:03:40;;;;;;;1.38;0.93;;;17.60;73.20;;;;;;5012864;28;20145;-71
2021/05/27 10:06:31;;;;;;;1.30;0.88;;;17.70;72.60;;;;;;5009630;28;20025;-70
2021/05/27 10:09:15;;;;;;;1.02;0.93;;;17.80;72.40;;;;;;4993560;28;20068;-71
2021/05/27 10:12:00;;;;;;;3.00;1.30;;;17.90;72.60;;;;;;4993790;28;20080;-71
2021/05/27 10:14:44;;;;;;;1.42;1.00;;;18.00;72.50;;;;;;5001264;28;20044;-73
2021/05/27 10:17:28;;;;;;;2.50;1.30;;;18.10;72.20;;;;;;5005287;28;20037;-72
2021/05/27 10:20:16;;;;;;;4.20;1.50;;;18.20;72.40;;;;;;5000324;28;20280;-73
2021/05/27 10:23:01;;;;;;;2.58;1.40;;;18.40;71.70;;;;;;5003914;28;20068;-71
2021/05/27 10:25:47;;;;;;;9.75;1.38;;;18.40;71.40;;;;;;5004501;28;20081;-73
2021/05/27 10:28:32;;;;;;;3.08;1.70;;;18.50;71.30;;;;;;5010620;28;20110;-74
2021/05/27 10:31:20;;;;;;;2.78;1.30;;;18.60;70.50;;;;;;5001442;28;20089;-71
2021/05/27 10:34:05;;;;;;;3.10;1.13;;;18.70;69.40;;;;;;5007613;28;20173;-72
2021/05/27 10:36:49;;;;;;;1.15;1.00;;;18.80;69.50;;;;;;5009410;28;20041;-71
2021/05/27 10:39:33;;;;;;;3.28;1.23;;;19.00;68.40;;;;;;5002873;28;20041;-72
2021/05/27 10:42:17;;;;;;;2.08;1.27;;;19.10;68.30;;;;;;4998326;28;20144;-72
2021/05/27 10:45:09;;;;;;;1.98;1.50;;;19.10;67.00;;;;;;5012299;28;20116;-72
2021/05/27 10:48:12;;;;;;;2.90;1.55;;;19.30;66.30;;;;;;5009340;28;20551;-72
2021/05/27 10:51:08;;;;;;;6.18;3.28;;;19.30;66.30;;;;;;5009477;28;20532;-71
2021/05/27 10:53:54;;;;;;;4.22;2.60;;;19.30;65.30;;;;;;5001802;28;20076;-71
2021/05/27 10:56:43;;;;;;;4.88;3.20;;;19.20;65.30;;;;;;4997978;28;20105;-73
2021/05/27 10:59:34;;;;;;;4.68;2.90;;;19.10;65.40;;;;;;5000728;28;20087;-73
2021/05/27 11:02:23;;;;;;;3.22;1.83;;;19.20;65.20;;;;;;5004960;28;20057;-74
2021/05/27 11:05:22;;;;;;;3.80;1.85;;;19.20;64.70;;;;;;5005133;28;20040;-77
2021/05/27 11:08:20;;;;;;;5.47;2.55;;;19.30;64.60;;;;;;5005293;28;20080;-73
2021/05/27 11:11:49;;;;;;;2.90;1.70;;;19.20;65.00;;;;;;5008799;28;20088;-69
2021/05/27 11:14:43;;;;;;;1.73;1.40;;;19.20;65.50;;;;;;5004435;28;20397;-70
2021/05/27 11:17:28;;;;;;;1.25;1.10;;;19.20;67.10;;;;;;5010778;28;20037;-71
2021/05/27 11:20:26;;;;;;;2.80;1.48;;;19.10;68.00;;;;;;5007701;28;20061;-74
2021/05/27 11:23:17;;;;;;;1.38;1.10;;;19.10;68.50;;;;;;4999130;28;20041;-71
2021/05/27 11:26:18;;;;;;;2.20;1.27;;;19.10;69.50;;;;;;5015429;28;20402;-70
2021/05/27 11:29:11;;;;;;;4.68;1.50;;;19.10;70.30;;;;;;5008002;28;20547;-70
2021/05/27 11:31:55;;;;;;;2.65;1.25;;;19.10;69.40;;;;;;5004212;28;20045;-70
2021/05/27 11:34:58;;;;;;;2.13;1.10;;;19.00;68.20;;;;;;5017428;28;20048;-70
2021/05/27 11:37:44;;;;;;;1.80;1.27;;;18.90;68.80;;;;;;4992789;28;20045;-70
2021/05/27 11:40:31;;;;;;;2.65;1.10;;;18.80;69.70;;;;;;5006757;28;20033;-72
2021/05/27 11:43:17;;;;;;;2.97;1.17;;;18.80;70.90;;;;;;5010473;28;20572;-73
2021/05/27 11:46:06;;;;;;;2.35;1.10;;;18.80;72.20;;;;;;5004635;28;20037;-73
2021/05/27 11:51:38;;;;;;;1.92;1.35;;;18.80;72.70;;;;;;5012220;28;20124;-72
2021/05/27 11:54:22;;;;;;;4.80;1.35;;;18.80;72.50;;;;;;5007712;28;20529;-72
2021/05/27 11:57:06;;;;;;;3.45;1.60;;;18.80;72.60;;;;;;5009221;28;20076;-72
2021/05/27 12:00:00;;;;;;;6.00;3.33;;;18.80;71.90;;;;;;5030091;28;20045;-72
2021/05/27 12:02:46;;;;;;;5.28;2.08;;;18.70;71.20;;;;;;4996899;28;20096;-72
2021/05/27 12:05:33;;;;;;;5.93;2.97;;;18.60;70.50;;;;;;4993513;28;20088;-73
2021/05/27 12:08:17;;;;;;;4.22;2.00;;;18.50;71.30;;;;;;4998031;28;20105;-72
2021/05/27 12:11:01;;;;;;;3.07;1.80;;;18.40;72.40;;;;;;5007498;28;20044;-73
2021/05/27 12:13:45;;;;;;;4.03;1.77;;;18.20;73.30;;;;;;4989879;28;20382;-72
2021/05/27 12:16:34;;;;;;;2.80;1.55;;;18.10;74.60;;;;;;5003020;28;20131;-72
2021/05/27 12:19:18;;;;;;;1.85;1.40;;;18.00;75.80;;;;;;5000410;28;20521;-72
2021/05/27 12:22:02;;;;;;;3.33;1.42;;;17.90;76.70;;;;;;5004048;28;20446;-72
2021/05/27 12:24:47;;;;;;;3.33;1.50;;;17.90;78.20;;;;;;5007564;28;20100;-72
2021/05/27 12:27:45;;;;;;;;;;;18.00;79.70;;;;;;5004970;28;20060;-72
2021/05/27 12:30:38;;;;;;;2.78;1.00;;;18.10;80.60;;;;;;5009384;28;19920;-73
2021/05/27 12:33:28;;;;;;;4.00;2.03;;;18.10;80.00;;;;;;5013590;28;20093;-72
2021/05/27 12:36:12;;;;;;;4.40;2.00;;;18.30;80.50;;;;;;5014658;28;20072;-72
2021/05/27 12:38:56;;;;;;;2.25;1.40;;;18.30;79.40;;;;;;5013747;28;20532;-72
2021/05/27 12:41:51;;;;;;;3.67;1.40;;;18.40;78.60;;;;;;5018304;28;20044;-72
2021/05/27 12:44:41;;;;;;;4.18;2.25;;;18.50;78.20;;;;;;5012118;28;20497;-72
2021/05/27 12:47:26;;;;;;;5.03;2.80;;;18.60;78.00;;;;;;5017795;28;20083;-72
2021/05/27 12:50:22;;;;;;;3.90;2.25;;;18.60;77.40;;;;;;5015417;28;20037;-76
2021/05/27 12:53:24;;;;;;;3.10;1.70;;;18.70;76.90;;;;;;5017755;28;20052;-73
2021/05/27 12:56:11;;;;;;;1.80;1.23;;;18.80;76.50;;;;;;5012367;28;20433;-73
2021/05/27 12:59:08;;;;;;;3.65;1.60;;;18.90;77.00;;;;;;5010555;28;20041;-73
2021/05/27 13:01:57;;;;;;;5.00;1.60;;;19.00;77.10;;;;;;5010855;28;20097;-73
2021/05/27 13:04:42;;;;;;;2.72;1.50;;;19.00;77.10;;;;;;5011212;28;20041;-73
2021/05/27 13:07:26;;;;;;;1.92;1.08;;;18.90;76.90;;;;;;5018994;28;20530;-72
2021/05/27 13:10:10;;;;;;;1.33;1.20;;;18.80;75.60;;;;;;5014637;28;20040;-71
2021/05/27 13:12:54;;;;;;;1.60;1.00;;;18.80;75.60;;;;;;5010634;28;20053;-70
2021/05/27 13:15:46;;;;;;;1.83;1.20;;;18.80;75.60;;;;;;5014304;28;20061;-73
2021/05/27 13:18:30;;;;;;;2.33;1.20;;;18.80;75.30;;;;;;5011645;28;20504;-70
2021/05/27 13:21:14;;;;;;;3.23;1.17;;;18.80;74.80;;;;;;5017678;28;20389;-71
2021/05/27 13:24:22;;;;;;;5.00;1.10;;;18.70;74.30;;;;;;4997900;28;20060;-70
2021/05/27 13:27:24;;;;;;;1.92;0.90;;;18.60;74.10;;;;;;5008960;28;20087;-71
2021/05/27 13:30:15;;;;;;;1.77;0.93;;;18.50;74.00;;;;;;5011142;28;20096;-71
2021/05/27 13:33:08;;;;;;;1.85;1.02;;;18.30;73.60;;;;;;5007391;28;20061;-70
2021/05/27 13:35:57;;;;;;;3.60;1.10;;;18.20;74.10;;;;;;5011640;28;20153;-70
2021/05/27 13:38:48;;;;;;;0.80;0.80;;;18.00;74.20;;;;;;5009672;28;20040;-70
2021/05/27 13:41:32;;;;;;;1.75;1.10;;;17.80;74.50;;;;;;5015932;28;20029;-70
2021/05/27 13:44:16;;;;;;;1.63;0.98;;;17.50;75.40;;;;;;5002439;28;20092;-71
2021/05/27 13:47:01;;;;;;;2.30;1.35;;;17.30;76.40;;;;;;5020852;28;20064;-71
2021/05/27 13:49:46;;;;;;;2.22;1.13;;;17.10;77.40;;;;;;5012787;28;20084;-70
2021/05/27 13:52:31;;;;;;;1.80;1.23;;;17.00;78.70;;;;;;5012123;28;20099;-70
2021/05/27 13:55:16;;;;;;;3.85;1.30;;;16.80;80.00;;;;;;4997876;28;20033;-70
2021/05/27 13:58:02;;;;;;;1.80;1.25;;;16.70;81.10;;;;;;5007274;28;20113;-70
2021/05/27 14:00:46;;;;;;;;;;;16.60;81.90;;;;;;4997626;28;20525;-70
2021/05/27 14:03:30;;;;;;;3.75;1.45;;;16.60;81.10;;;;;;5002830;28;19932;-70
2021/05/27 14:06:15;;;;;;;3.85;1.55;;;16.60;83.20;;;;;;4994992;28;20041;-70
2021/05/27 14:08:59;;;;;;;;;;;16.60;84.50;;;;;;5004299;28;20537;-71
2021/05/27 14:11:44;;;;;;;4.38;1.52;;;16.80;85.40;;;;;;5011951;28;20344;-70
2021/05/27 14:14:28;;;;;;;4.70;1.83;;;17.00;86.40;;;;;;5010607;28;20072;-71
2021/05/27 14:17:12;;;;;;;1.85;1.25;;;17.30;87.50;;;;;;5011277;28;20033;-71
2021/05/27 14:19:56;;;;;;;3.63;1.23;;;17.50;86.60;;;;;;5005377;28;20095;-71
2021/05/27 14:22:40;;;;;;;1.98;1.10;;;17.60;84.20;;;;;;5006235;28;20104;-71
2021/05/27 14:25:24;;;;;;;2.30;1.33;;;17.70;84.90;;;;;;5010780;28;20091;-71
2021/05/27 14:28:08;;;;;;;3.85;1.48;;;17.70;84.70;;;;;;5005973;28;20107;-71
2021/05/27 14:30:52;;;;;;;2.73;1.37;;;17.60;84.80;;;;;;5009675;28;20040;-71
2021/05/27 14:33:36;;;;;;;2.47;1.40;;;17.60;85.40;;;;;;5008636;28;20533;-71
2021/05/27 14:36:21;;;;;;;5.60;1.75;;;17.50;85.60;;;;;;5017152;28;20037;-68
2021/05/27 14:39:05;;;;;;;6.63;1.80;;;17.40;85.60;;;;;;5000252;28;20041;-69